sensor_id;sensor_type;location;lat;lon;timestamp;temperature;humidity
40808;DHT22;26523;52.504;13.498;2023-07-20T00:02:15;17.40;99.90
40808;DHT22;26523;52.504;13.498;2023-07-20T00:04:40;17.40;99.90
40808;DHT22;26523;52.504;13.498;2023-07-20T00:07:07;17.30;99.90
40808;DHT22;26523;52.504;13.498;2023-07-20T00:09:33;17.30;99.90
40808;DHT22;26523;52.504;13.498;2023-07-20T00:12:00;17.30;99.90
40808;DHT22;26523;52.504;13.498;2023-07-20T00:14:27;17.20;99.90
40808;DHT22;26523;52.504;13.498;2023-07-20T00:16:56;17.20;99.90
40808;DHT22;26523;52.504;13.498;2023-07-20T00:19:26;17.20;99.90
40808;DHT22;26523;52.504;13.498;2023-07-20T00:21:54;17.10;99.90
40808;DHT22;26523;52.504;13.498;2023-07-20T00:24:20;17.10;99.90
40808;DHT22;26523;52.504;13.498;2023-07-20T00:26:47;17.00;99.90
40808;DHT22;26523;52.504;13.498;2023-07-20T00:29:13;17.00;99.90
40808;DHT22;26523;52.504;13.498;2023-07-20T00:31:39;17.00;99.90
40808;DHT22;26523;52.504;13.498;2023-07-20T00:34:05;17.00;99.90
40808;DHT22;26523;52.504;13.498;2023-07-20T00:36:31;17.00;99.90
40808;DHT22;26523;52.504;13.498;2023-07-20T00:38:58;16.90;99.90
40808;DHT22;26523;52.504;13.498;2023-07-20T00:41:24;17.00;99.90
40808;DHT22;26523;52.504;13.498;2023-07-20T00:43:50;17.00;99.90
40808;DHT22;26523;52.504;13.498;2023-07-20T00:46:16;16.90;99.90
40808;DHT22;26523;52.504;13.498;2023-07-20T00:48:42;16.90;99.90
40808;DHT22;26523;52.504;13.498;2023-07-20T00:51:09;16.90;99.90
40808;DHT22;26523;52.504;13.498;2023-07-20T00:53:40;16.90;99.90
40808;DHT22;26523;52.504;13.498;2023-07-20T00:56:06;16.90;99.90
40808;DHT22;26523;52.504;13.498;2023-07-20T00:58:34;16.80;99.90
40808;DHT22;26523;52.504;13.498;2023-07-20T01:01:00;16.70;99.90
40808;DHT22;26523;52.504;13.498;2023-07-20T01:03:25;16.70;99.90
40808;DHT22;26523;52.504;13.498;2023-07-20T01:05:59;16.70;99.90
40808;DHT22;26523;52.504;13.498;2023-07-20T01:08:51;16.70;99.90
40808;DHT22;26523;52.504;13.498;2023-07-20T01:11:28;16.60;99.90
40808;DHT22;26523;52.504;13.498;2023-07-20T01:13:58;16.70;99.90
40808;DHT22;26523;52.504;13.498;2023-07-20T01:16:25;16.70;99.90
40808;DHT22;26523;52.504;13.498;2023-07-20T01:18:52;16.80;99.90
40808;DHT22;26523;52.504;13.498;2023-07-20T01:21:26;16.80;99.90
40808;DHT22;26523;52.504;13.498;2023-07-20T01:32:31;17.00;99.90
40808;DHT22;26523;52.504;13.498;2023-07-20T01:34:58;16.90;99.90
40808;DHT22;26523;52.504;13.498;2023-07-20T01:37:25;17.00;99.90
40808;DHT22;26523;52.504;13.498;2023-07-20T01:39:55;16.90;99.90
40808;DHT22;26523;52.504;13.498;2023-07-20T01:42:24;16.90;99.90
40808;DHT22;26523;52.504;13.498;2023-07-20T01:44:54;17.00;99.90
40808;DHT22;26523;52.504;13.498;2023-07-20T01:47:20;17.00;99.90
40808;DHT22;26523;52.504;13.498;2023-07-20T01:49:47;17.00;99.90
40808;DHT22;26523;52.504;13.498;2023-07-20T01:52:14;16.90;99.90
40808;DHT22;26523;52.504;13.498;2023-07-20T01:54:43;16.90;99.90
40808;DHT22;26523;52.504;13.498;2023-07-20T01:57:11;16.90;99.90
40808;DHT22;26523;52.504;13.498;2023-07-20T01:59:36;16.90;99.90
40808;DHT22;26523;52.504;13.498;2023-07-20T02:02:03;16.80;99.90
40808;DHT22;26523;52.504;13.498;2023-07-20T02:04:30;16.80;99.90
40808;DHT22;26523;52.504;13.498;2023-07-20T02:06:55;16.80;99.90
40808;DHT22;26523;52.504;13.498;2023-07-20T02:09:21;16.80;99.90
40808;DHT22;26523;52.504;13.498;2023-07-20T02:11:48;16.80;99.90
40808;DHT22;26523;52.504;13.498;2023-07-20T02:14:15;16.80;99.90
40808;DHT22;26523;52.504;13.498;2023-07-20T02:16:41;16.80;99.90
40808;DHT22;26523;52.504;13.498;2023-07-20T02:19:07;16.90;99.90
40808;DHT22;26523;52.504;13.498;2023-07-20T02:21:33;16.90;99.90
40808;DHT22;26523;52.504;13.498;2023-07-20T02:23:59;16.80;99.90
40808;DHT22;26523;52.504;13.498;2023-07-20T02:26:25;16.80;99.90
40808;DHT22;26523;52.504;13.498;2023-07-20T02:28:51;16.90;99.90
40808;DHT22;26523;52.504;13.498;2023-07-20T02:31:17;16.80;99.90
40808;DHT22;26523;52.504;13.498;2023-07-20T02:33:44;16.80;99.90
40808;DHT22;26523;52.504;13.498;2023-07-20T02:36:12;16.80;99.90
40808;DHT22;26523;52.504;13.498;2023-07-20T02:38:40;16.80;99.90
40808;DHT22;26523;52.504;13.498;2023-07-20T02:41:07;16.70;99.90
40808;DHT22;26523;52.504;13.498;2023-07-20T02:43:33;16.80;99.90
40808;DHT22;26523;52.504;13.498;2023-07-20T02:46:00;16.70;99.90
40808;DHT22;26523;52.504;13.498;2023-07-20T02:48:26;16.70;99.90
40808;DHT22;26523;52.504;13.498;2023-07-20T02:50:52;16.70;99.90
40808;DHT22;26523;52.504;13.498;2023-07-20T02:53:18;16.60;99.90
40808;DHT22;26523;52.504;13.498;2023-07-20T02:55:46;16.60;99.90
40808;DHT22;26523;52.504;13.498;2023-07-20T02:58:13;16.70;99.90
40808;DHT22;26523;52.504;13.498;2023-07-20T03:00:42;16.70;99.90
40808;DHT22;26523;52.504;13.498;2023-07-20T03:03:13;16.70;99.90
40808;DHT22;26523;52.504;13.498;2023-07-20T03:05:43;16.70;99.90
40808;DHT22;26523;52.504;13.498;2023-07-20T03:08:09;16.70;99.90
40808;DHT22;26523;52.504;13.498;2023-07-20T03:10:41;16.70;99.90
40808;DHT22;26523;52.504;13.498;2023-07-20T03:13:12;16.70;99.90
40808;DHT22;26523;52.504;13.498;2023-07-20T03:15:45;16.70;99.90
40808;DHT22;26523;52.504;13.498;2023-07-20T03:18:10;16.70;99.90
40808;DHT22;26523;52.504;13.498;2023-07-20T03:20:38;16.60;99.90
40808;DHT22;26523;52.504;13.498;2023-07-20T03:23:03;16.60;99.90
40808;DHT22;26523;52.504;13.498;2023-07-20T03:25:29;16.60;99.90
40808;DHT22;26523;52.504;13.498;2023-07-20T03:27:56;16.60;99.90
40808;DHT22;26523;52.504;13.498;2023-07-20T03:30:23;16.60;99.90
40808;DHT22;26523;52.504;13.498;2023-07-20T03:32:49;16.60;99.90
40808;DHT22;26523;52.504;13.498;2023-07-20T03:35:14;16.60;99.90
40808;DHT22;26523;52.504;13.498;2023-07-20T03:37:41;16.60;99.90
40808;DHT22;26523;52.504;13.498;2023-07-20T03:40:08;16.60;99.90
40808;DHT22;26523;52.504;13.498;2023-07-20T03:42:35;16.60;99.90
40808;DHT22;26523;52.504;13.498;2023-07-20T03:45:01;16.60;99.90
40808;DHT22;26523;52.504;13.498;2023-07-20T03:47:28;16.70;99.90
40808;DHT22;26523;52.504;13.498;2023-07-20T03:49:54;16.60;99.90
40808;DHT22;26523;52.504;13.498;2023-07-20T03:52:20;16.60;99.90
40808;DHT22;26523;52.504;13.498;2023-07-20T03:54:47;16.70;99.90
40808;DHT22;26523;52.504;13.498;2023-07-20T03:57:14;16.70;99.90
40808;DHT22;26523;52.504;13.498;2023-07-20T03:59:45;16.70;99.90
40808;DHT22;26523;52.504;13.498;2023-07-20T04:02:11;16.70;99.90
40808;DHT22;26523;52.504;13.498;2023-07-20T04:04:37;16.70;99.90
40808;DHT22;26523;52.504;13.498;2023-07-20T04:07:02;16.80;99.90
40808;DHT22;26523;52.504;13.498;2023-07-20T04:09:29;16.80;99.90
40808;DHT22;26523;52.504;13.498;2023-07-20T04:11:58;16.80;99.90
40808;DHT22;26523;52.504;13.498;2023-07-20T04:14:24;16.80;99.90
40808;DHT22;26523;52.504;13.498;2023-07-20T04:16:50;16.80;99.90
40808;DHT22;26523;52.504;13.498;2023-07-20T04:19:17;16.80;99.90
40808;DHT22;26523;52.504;13.498;2023-07-20T04:21:44;16.80;99.90
40808;DHT22;26523;52.504;13.498;2023-07-20T04:24:12;16.80;99.90
40808;DHT22;26523;52.504;13.498;2023-07-20T04:26:38;16.70;99.90
40808;DHT22;26523;52.504;13.498;2023-07-20T04:29:04;16.80;99.90
40808;DHT22;26523;52.504;13.498;2023-07-20T04:31:30;16.80;99.90
40808;DHT22;26523;52.504;13.498;2023-07-20T04:34:00;16.90;99.90
40808;DHT22;26523;52.504;13.498;2023-07-20T04:36:25;16.90;99.90
40808;DHT22;26523;52.504;13.498;2023-07-20T04:38:52;16.90;99.90
40808;DHT22;26523;52.504;13.498;2023-07-20T04:41:18;16.80;99.90
40808;DHT22;26523;52.504;13.498;2023-07-20T04:43:45;16.90;99.90
40808;DHT22;26523;52.504;13.498;2023-07-20T04:46:12;16.90;99.90
40808;DHT22;26523;52.504;13.498;2023-07-20T04:48:38;16.90;99.90
40808;DHT22;26523;52.504;13.498;2023-07-20T04:51:04;16.90;99.90
40808;DHT22;26523;52.504;13.498;2023-07-20T04:53:30;16.90;99.90
40808;DHT22;26523;52.504;13.498;2023-07-20T04:55:57;16.90;99.90
40808;DHT22;26523;52.504;13.498;2023-07-20T04:58:22;17.00;99.90
40808;DHT22;26523;52.504;13.498;2023-07-20T05:00:50;17.00;99.90
40808;DHT22;26523;52.504;13.498;2023-07-20T05:03:16;17.10;99.90
40808;DHT22;26523;52.504;13.498;2023-07-20T05:05:41;17.10;99.90
40808;DHT22;26523;52.504;13.498;2023-07-20T05:08:07;17.10;99.90
40808;DHT22;26523;52.504;13.498;2023-07-20T05:10:33;17.20;99.90
40808;DHT22;26523;52.504;13.498;2023-07-20T05:12:59;17.20;99.90
40808;DHT22;26523;52.504;13.498;2023-07-20T05:15:25;17.30;99.90
40808;DHT22;26523;52.504;13.498;2023-07-20T05:17:51;17.30;99.90
40808;DHT22;26523;52.504;13.498;2023-07-20T05:20:19;17.40;99.90
40808;DHT22;26523;52.504;13.498;2023-07-20T05:22:48;17.40;99.90
40808;DHT22;26523;52.504;13.498;2023-07-20T05:25:14;17.30;99.90
40808;DHT22;26523;52.504;13.498;2023-07-20T05:27:40;17.30;99.90
40808;DHT22;26523;52.504;13.498;2023-07-20T05:30:07;17.30;99.90
40808;DHT22;26523;52.504;13.498;2023-07-20T05:32:34;17.50;99.90
40808;DHT22;26523;52.504;13.498;2023-07-20T05:34:59;17.60;99.90
40808;DHT22;26523;52.504;13.498;2023-07-20T05:37:25;17.80;99.90
40808;DHT22;26523;52.504;13.498;2023-07-20T05:39:52;18.10;99.90
40808;DHT22;26523;52.504;13.498;2023-07-20T05:42:19;19.20;99.90
40808;DHT22;26523;52.504;13.498;2023-07-20T05:44:49;21.10;99.90
40808;DHT22;26523;52.504;13.498;2023-07-20T05:47:21;22.50;99.90
40808;DHT22;26523;52.504;13.498;2023-07-20T05:49:47;22.50;99.90
40808;DHT22;26523;52.504;13.498;2023-07-20T05:52:14;22.10;99.90
40808;DHT22;26523;52.504;13.498;2023-07-20T05:54:40;22.00;99.90
40808;DHT22;26523;52.504;13.498;2023-07-20T05:57:06;22.10;99.90
40808;DHT22;26523;52.504;13.498;2023-07-20T05:59:33;22.80;99.90
40808;DHT22;26523;52.504;13.498;2023-07-20T06:02:00;23.30;99.90
40808;DHT22;26523;52.504;13.498;2023-07-20T06:04:26;24.90;99.90
40808;DHT22;26523;52.504;13.498;2023-07-20T06:06:52;26.70;98.80
40808;DHT22;26523;52.504;13.498;2023-07-20T06:09:18;26.60;96.70
40808;DHT22;26523;52.504;13.498;2023-07-20T06:11:44;25.70;96.10
40808;DHT22;26523;52.504;13.498;2023-07-20T06:14:12;24.60;97.60
40808;DHT22;26523;52.504;13.498;2023-07-20T06:16:42;23.40;99.40
40808;DHT22;26523;52.504;13.498;2023-07-20T06:19:08;22.50;99.90
40808;DHT22;26523;52.504;13.498;2023-07-20T06:21:36;21.80;99.90
40808;DHT22;26523;52.504;13.498;2023-07-20T06:24:04;21.30;99.90
40808;DHT22;26523;52.504;13.498;2023-07-20T06:26:31;20.90;99.90
40808;DHT22;26523;52.504;13.498;2023-07-20T06:29:03;20.70;99.90
40808;DHT22;26523;52.504;13.498;2023-07-20T06:31:29;20.40;99.90
40808;DHT22;26523;52.504;13.498;2023-07-20T06:33:55;20.10;99.90
40808;DHT22;26523;52.504;13.498;2023-07-20T06:36:20;19.80;99.90
40808;DHT22;26523;52.504;13.498;2023-07-20T06:38:47;19.50;99.90
40808;DHT22;26523;52.504;13.498;2023-07-20T06:41:13;19.50;99.90
40808;DHT22;26523;52.504;13.498;2023-07-20T06:43:40;19.40;99.90
40808;DHT22;26523;52.504;13.498;2023-07-20T06:46:06;19.70;99.90
40808;DHT22;26523;52.504;13.498;2023-07-20T06:48:31;20.60;99.90
40808;DHT22;26523;52.504;13.498;2023-07-20T06:50:57;21.60;99.90
40808;DHT22;26523;52.504;13.498;2023-07-20T06:53:24;22.90;99.90
40808;DHT22;26523;52.504;13.498;2023-07-20T06:55:49;23.30;99.90
40808;DHT22;26523;52.504;13.498;2023-07-20T06:58:20;23.30;99.90
40808;DHT22;26523;52.504;13.498;2023-07-20T07:00:47;23.60;99.50
40808;DHT22;26523;52.504;13.498;2023-07-20T07:03:12;24.10;99.30
40808;DHT22;26523;52.504;13.498;2023-07-20T07:05:40;24.30;98.40
40808;DHT22;26523;52.504;13.498;2023-07-20T07:08:07;24.00;98.00
40808;DHT22;26523;52.504;13.498;2023-07-20T07:10:36;23.20;98.30
40808;DHT22;26523;52.504;13.498;2023-07-20T07:13:02;22.60;99.50
40808;DHT22;26523;52.504;13.498;2023-07-20T07:15:28;22.70;99.90
40808;DHT22;26523;52.504;13.498;2023-07-20T07:17:54;24.00;99.80
40808;DHT22;26523;52.504;13.498;2023-07-20T07:20:26;27.10;95.50
40808;DHT22;26523;52.504;13.498;2023-07-20T07:22:53;29.40;92.30
40808;DHT22;26523;52.504;13.498;2023-07-20T07:25:18;31.20;85.60
40808;DHT22;26523;52.504;13.498;2023-07-20T07:27:45;32.90;80.30
40808;DHT22;26523;52.504;13.498;2023-07-20T07:30:11;34.30;74.60
40808;DHT22;26523;52.504;13.498;2023-07-20T07:32:37;34.50;71.50
40808;DHT22;26523;52.504;13.498;2023-07-20T07:35:05;35.50;69.50
40808;DHT22;26523;52.504;13.498;2023-07-20T07:37:31;36.10;68.20
40808;DHT22;26523;52.504;13.498;2023-07-20T07:39:57;35.00;66.40
40808;DHT22;26523;52.504;13.498;2023-07-20T07:42:22;32.10;70.20
40808;DHT22;26523;52.504;13.498;2023-07-20T07:44:48;29.70;73.40
40808;DHT22;26523;52.504;13.498;2023-07-20T07:47:17;28.30;76.40
40808;DHT22;26523;52.504;13.498;2023-07-20T07:49:43;28.60;77.20
40808;DHT22;26523;52.504;13.498;2023-07-20T07:52:09;30.00;75.00
40808;DHT22;26523;52.504;13.498;2023-07-20T07:54:36;30.70;71.70
40808;DHT22;26523;52.504;13.498;2023-07-20T07:57:04;30.60;70.90
40808;DHT22;26523;52.504;13.498;2023-07-20T07:59:29;30.10;71.30
40808;DHT22;26523;52.504;13.498;2023-07-20T08:01:56;30.60;70.50
40808;DHT22;26523;52.504;13.498;2023-07-20T08:04:25;30.40;70.70
40808;DHT22;26523;52.504;13.498;2023-07-20T08:06:50;30.20;71.10
40808;DHT22;26523;52.504;13.498;2023-07-20T08:09:17;29.60;71.90
40808;DHT22;26523;52.504;13.498;2023-07-20T08:11:43;28.80;73.70
40808;DHT22;26523;52.504;13.498;2023-07-20T08:14:09;28.00;75.70
40808;DHT22;26523;52.504;13.498;2023-07-20T08:16:39;27.20;77.20
40808;DHT22;26523;52.504;13.498;2023-07-20T08:19:04;26.70;77.40
40808;DHT22;26523;52.504;13.498;2023-07-20T08:21:31;26.40;78.50
40808;DHT22;26523;52.504;13.498;2023-07-20T08:23:56;26.50;79.30
40808;DHT22;26523;52.504;13.498;2023-07-20T08:26:23;26.30;78.90
40808;DHT22;26523;52.504;13.498;2023-07-20T08:28:50;26.20;79.80
40808;DHT22;26523;52.504;13.498;2023-07-20T08:31:17;25.60;80.70
40808;DHT22;26523;52.504;13.498;2023-07-20T08:33:43;24.90;81.60
40808;DHT22;26523;52.504;13.498;2023-07-20T08:36:11;24.40;81.60
40808;DHT22;26523;52.504;13.498;2023-07-20T08:38:41;24.20;81.70
40808;DHT22;26523;52.504;13.498;2023-07-20T08:41:06;24.50;82.80
40808;DHT22;26523;52.504;13.498;2023-07-20T08:43:34;24.90;81.80
40808;DHT22;26523;52.504;13.498;2023-07-20T08:46:01;25.50;79.40
40808;DHT22;26523;52.504;13.498;2023-07-20T08:48:30;25.80;79.70
40808;DHT22;26523;52.504;13.498;2023-07-20T08:50:57;26.00;78.70
40808;DHT22;26523;52.504;13.498;2023-07-20T08:53:24;26.20;79.70
40808;DHT22;26523;52.504;13.498;2023-07-20T08:55:51;26.40;78.10
40808;DHT22;26523;52.504;13.498;2023-07-20T08:58:18;26.20;78.00
40808;DHT22;26523;52.504;13.498;2023-07-20T09:00:44;26.10;78.20
40808;DHT22;26523;52.504;13.498;2023-07-20T09:03:11;25.70;79.00
40808;DHT22;26523;52.504;13.498;2023-07-20T09:05:38;25.50;79.70
40808;DHT22;26523;52.504;13.498;2023-07-20T09:08:07;25.20;79.40
40808;DHT22;26523;52.504;13.498;2023-07-20T09:10:33;25.10;80.00
40808;DHT22;26523;52.504;13.498;2023-07-20T09:13:00;24.90;79.70
40808;DHT22;26523;52.504;13.498;2023-07-20T09:15:25;24.90;79.90
40808;DHT22;26523;52.504;13.498;2023-07-20T09:17:52;25.40;79.40
40808;DHT22;26523;52.504;13.498;2023-07-20T09:20:20;26.40;78.00
40808;DHT22;26523;52.504;13.498;2023-07-20T09:22:47;27.80;75.80
40808;DHT22;26523;52.504;13.498;2023-07-20T09:25:18;28.90;73.80
40808;DHT22;26523;52.504;13.498;2023-07-20T09:27:46;29.00;71.60
40808;DHT22;26523;52.504;13.498;2023-07-20T09:30:14;28.80;72.40
40808;DHT22;26523;52.504;13.498;2023-07-20T09:32:49;29.50;71.20
40808;DHT22;26523;52.504;13.498;2023-07-20T09:35:25;29.40;70.30
40808;DHT22;26523;52.504;13.498;2023-07-20T09:38:00;28.60;71.40
40808;DHT22;26523;52.504;13.498;2023-07-20T09:40:27;29.10;72.10
40808;DHT22;26523;52.504;13.498;2023-07-20T09:42:54;30.50;69.70
40808;DHT22;26523;52.504;13.498;2023-07-20T09:45:48;30.40;69.20
40808;DHT22;26523;52.504;13.498;2023-07-20T09:48:14;29.70;69.40
40808;DHT22;26523;52.504;13.498;2023-07-20T09:50:48;29.00;71.30
40808;DHT22;26523;52.504;13.498;2023-07-20T09:53:17;28.20;72.30
40808;DHT22;26523;52.504;13.498;2023-07-20T09:55:48;27.40;73.90
40808;DHT22;26523;52.504;13.498;2023-07-20T09:58:14;26.60;75.40
40808;DHT22;26523;52.504;13.498;2023-07-20T10:00:41;25.80;76.90
40808;DHT22;26523;52.504;13.498;2023-07-20T10:03:20;25.00;78.20
40808;DHT22;26523;52.504;13.498;2023-07-20T10:06:02;24.30;80.30
40808;DHT22;26523;52.504;13.498;2023-07-20T10:08:31;23.80;82.20
40808;DHT22;26523;52.504;13.498;2023-07-20T10:10:59;23.20;84.10
40808;DHT22;26523;52.504;13.498;2023-07-20T10:13:30;22.60;86.40
40808;DHT22;26523;52.504;13.498;2023-07-20T10:16:09;22.20;89.00
40808;DHT22;26523;52.504;13.498;2023-07-20T10:18:41;21.70;90.70
40808;DHT22;26523;52.504;13.498;2023-07-20T10:21:08;21.40;92.00
40808;DHT22;26523;52.504;13.498;2023-07-20T10:23:35;21.20;92.70
40808;DHT22;26523;52.504;13.498;2023-07-20T10:26:01;21.20;92.90
40808;DHT22;26523;52.504;13.498;2023-07-20T10:28:28;21.40;92.10
40808;DHT22;26523;52.504;13.498;2023-07-20T10:30:54;21.80;91.50
40808;DHT22;26523;52.504;13.498;2023-07-20T10:33:20;22.10;90.90
40808;DHT22;26523;52.504;13.498;2023-07-20T10:35:54;22.20;90.60
40808;DHT22;26523;52.504;13.498;2023-07-20T10:38:37;22.30;90.00
40808;DHT22;26523;52.504;13.498;2023-07-20T10:44:04;22.30;90.00
40808;DHT22;26523;52.504;13.498;2023-07-20T10:46:44;22.20;90.30
40808;DHT22;26523;52.504;13.498;2023-07-20T10:49:17;22.20;89.90
40808;DHT22;26523;52.504;13.498;2023-07-20T10:51:55;22.10;90.20
40808;DHT22;26523;52.504;13.498;2023-07-20T10:56:47;22.30;89.90
40808;DHT22;26523;52.504;13.498;2023-07-20T11:01:48;22.30;89.10
40808;DHT22;26523;52.504;13.498;2023-07-20T11:04:17;22.30;88.50
40808;DHT22;26523;52.504;13.498;2023-07-20T11:06:46;22.50;89.30
40808;DHT22;26523;52.504;13.498;2023-07-20T11:09:13;22.60;88.90
40808;DHT22;26523;52.504;13.498;2023-07-20T11:11:46;22.70;88.60
40808;DHT22;26523;52.504;13.498;2023-07-20T11:14:27;22.80;89.30
40808;DHT22;26523;52.504;13.498;2023-07-20T11:16:53;22.80;88.70
40808;DHT22;26523;52.504;13.498;2023-07-20T11:19:25;22.80;89.10
40808;DHT22;26523;52.504;13.498;2023-07-20T11:21:53;22.60;88.80
40808;DHT22;26523;52.504;13.498;2023-07-20T11:24:19;22.70;89.50
40808;DHT22;26523;52.504;13.498;2023-07-20T11:26:50;22.90;89.40
40808;DHT22;26523;52.504;13.498;2023-07-20T11:29:17;22.90;88.80
40808;DHT22;26523;52.504;13.498;2023-07-20T11:31:44;23.00;88.70
40808;DHT22;26523;52.504;13.498;2023-07-20T11:34:21;23.00;88.40
40808;DHT22;26523;52.504;13.498;2023-07-20T11:36:51;23.20;88.40
40808;DHT22;26523;52.504;13.498;2023-07-20T11:39:21;23.20;88.80
40808;DHT22;26523;52.504;13.498;2023-07-20T11:41:55;23.20;88.40
40808;DHT22;26523;52.504;13.498;2023-07-20T11:44:22;23.30;89.40
40808;DHT22;26523;52.504;13.498;2023-07-20T11:47:04;23.40;89.10
40808;DHT22;26523;52.504;13.498;2023-07-20T11:49:36;23.30;88.20
40808;DHT22;26523;52.504;13.498;2023-07-20T11:52:10;23.10;89.60
40808;DHT22;26523;52.504;13.498;2023-07-20T11:54:38;23.00;88.90
40808;DHT22;26523;52.504;13.498;2023-07-20T11:57:04;22.90;88.30
40808;DHT22;26523;52.504;13.498;2023-07-20T11:59:32;22.80;88.70
40808;DHT22;26523;52.504;13.498;2023-07-20T12:02:06;22.60;89.40
40808;DHT22;26523;52.504;13.498;2023-07-20T12:04:32;22.60;89.80
40808;DHT22;26523;52.504;13.498;2023-07-20T12:07:00;22.60;90.00
40808;DHT22;26523;52.504;13.498;2023-07-20T12:09:25;22.80;89.30
40808;DHT22;26523;52.504;13.498;2023-07-20T12:11:51;23.00;88.20
40808;DHT22;26523;52.504;13.498;2023-07-20T12:14:17;23.10;87.80
40808;DHT22;26523;52.504;13.498;2023-07-20T12:16:51;23.10;87.00
40808;DHT22;26523;52.504;13.498;2023-07-20T12:19:17;23.00;87.80
40808;DHT22;26523;52.504;13.498;2023-07-20T12:21:58;22.90;87.70
40808;DHT22;26523;52.504;13.498;2023-07-20T12:24:25;22.80;88.30
40808;DHT22;26523;52.504;13.498;2023-07-20T12:26:56;22.60;88.80
40808;DHT22;26523;52.504;13.498;2023-07-20T12:29:23;22.30;89.30
40808;DHT22;26523;52.504;13.498;2023-07-20T12:31:53;22.10;89.30
40808;DHT22;26523;52.504;13.498;2023-07-20T12:34:18;22.00;88.70
40808;DHT22;26523;52.504;13.498;2023-07-20T12:36:45;22.00;88.80
40808;DHT22;26523;52.504;13.498;2023-07-20T12:39:11;22.10;88.70
40808;DHT22;26523;52.504;13.498;2023-07-20T12:41:37;22.30;89.00
40808;DHT22;26523;52.504;13.498;2023-07-20T12:44:04;22.50;87.20
40808;DHT22;26523;52.504;13.498;2023-07-20T12:46:32;22.70;86.30
40808;DHT22;26523;52.504;13.498;2023-07-20T12:49:00;22.80;85.20
40808;DHT22;26523;52.504;13.498;2023-07-20T12:51:26;22.80;85.00
40808;DHT22;26523;52.504;13.498;2023-07-20T12:53:51;22.90;86.30
40808;DHT22;26523;52.504;13.498;2023-07-20T12:56:17;22.80;85.20
40808;DHT22;26523;52.504;13.498;2023-07-20T12:58:42;22.90;84.50
40808;DHT22;26523;52.504;13.498;2023-07-20T13:01:08;22.90;84.60
40808;DHT22;26523;52.504;13.498;2023-07-20T13:03:36;22.60;83.70
40808;DHT22;26523;52.504;13.498;2023-07-20T13:06:04;22.40;84.40
40808;DHT22;26523;52.504;13.498;2023-07-20T13:08:29;22.20;85.60
40808;DHT22;26523;52.504;13.498;2023-07-20T13:10:56;22.20;86.50
40808;DHT22;26523;52.504;13.498;2023-07-20T13:13:22;22.10;85.80
40808;DHT22;26523;52.504;13.498;2023-07-20T13:15:49;22.10;85.60
40808;DHT22;26523;52.504;13.498;2023-07-20T13:18:15;21.90;81.40
40808;DHT22;26523;52.504;13.498;2023-07-20T13:20:44;22.00;82.50
40808;DHT22;26523;52.504;13.498;2023-07-20T13:23:09;22.00;82.80
40808;DHT22;26523;52.504;13.498;2023-07-20T13:25:36;22.10;82.40
40808;DHT22;26523;52.504;13.498;2023-07-20T13:28:01;22.10;81.80
40808;DHT22;26523;52.504;13.498;2023-07-20T13:30:29;22.10;81.40
40808;DHT22;26523;52.504;13.498;2023-07-20T13:32:55;22.10;81.00
40808;DHT22;26523;52.504;13.498;2023-07-20T13:35:21;22.10;80.70
40808;DHT22;26523;52.504;13.498;2023-07-20T13:37:47;22.10;80.70
40808;DHT22;26523;52.504;13.498;2023-07-20T13:40:16;22.10;80.30
40808;DHT22;26523;52.504;13.498;2023-07-20T13:42:44;22.10;80.50
40808;DHT22;26523;52.504;13.498;2023-07-20T13:45:11;22.20;79.30
40808;DHT22;26523;52.504;13.498;2023-07-20T13:47:36;22.20;79.50
40808;DHT22;26523;52.504;13.498;2023-07-20T13:50:02;22.20;78.50
40808;DHT22;26523;52.504;13.498;2023-07-20T13:52:29;22.20;79.30
40808;DHT22;26523;52.504;13.498;2023-07-20T13:54:54;22.20;78.20
40808;DHT22;26523;52.504;13.498;2023-07-20T13:57:20;22.30;77.70
40808;DHT22;26523;52.504;13.498;2023-07-20T13:59:48;22.40;78.10
40808;DHT22;26523;52.504;13.498;2023-07-20T14:02:16;22.40;76.60
40808;DHT22;26523;52.504;13.498;2023-07-20T14:04:42;22.40;76.70
40808;DHT22;26523;52.504;13.498;2023-07-20T14:07:07;22.40;76.60
40808;DHT22;26523;52.504;13.498;2023-07-20T14:09:33;22.40;75.90
40808;DHT22;26523;52.504;13.498;2023-07-20T14:11:59;22.50;76.60
40808;DHT22;26523;52.504;13.498;2023-07-20T14:14:25;22.50;76.00
40808;DHT22;26523;52.504;13.498;2023-07-20T14:16:50;22.50;76.40
40808;DHT22;26523;52.504;13.498;2023-07-20T14:19:17;22.50;76.30
40808;DHT22;26523;52.504;13.498;2023-07-20T14:21:43;22.60;76.30
40808;DHT22;26523;52.504;13.498;2023-07-20T14:24:11;22.50;76.10
40808;DHT22;26523;52.504;13.498;2023-07-20T14:26:37;22.60;75.10
40808;DHT22;26523;52.504;13.498;2023-07-20T14:29:03;22.60;76.10
40808;DHT22;26523;52.504;13.498;2023-07-20T14:31:28;22.70;76.90
40808;DHT22;26523;52.504;13.498;2023-07-20T14:33:55;22.80;76.30
40808;DHT22;26523;52.504;13.498;2023-07-20T14:36:21;23.00;77.40
40808;DHT22;26523;52.504;13.498;2023-07-20T14:38:48;23.20;75.50
40808;DHT22;26523;52.504;13.498;2023-07-20T14:41:16;23.20;74.10
40808;DHT22;26523;52.504;13.498;2023-07-20T14:43:42;23.20;74.00
40808;DHT22;26523;52.504;13.498;2023-07-20T14:46:08;23.30;74.20
40808;DHT22;26523;52.504;13.498;2023-07-20T14:48:35;23.40;73.70
40808;DHT22;26523;52.504;13.498;2023-07-20T14:51:01;23.40;73.30
40808;DHT22;26523;52.504;13.498;2023-07-20T14:53:26;23.30;74.10
40808;DHT22;26523;52.504;13.498;2023-07-20T14:55:58;23.40;74.90
40808;DHT22;26523;52.504;13.498;2023-07-20T14:58:24;23.40;73.80
40808;DHT22;26523;52.504;13.498;2023-07-20T15:00:50;23.40;73.50
40808;DHT22;26523;52.504;13.498;2023-07-20T15:03:17;23.30;73.70
40808;DHT22;26523;52.504;13.498;2023-07-20T15:05:43;23.20;74.20
40808;DHT22;26523;52.504;13.498;2023-07-20T15:08:08;23.20;73.70
40808;DHT22;26523;52.504;13.498;2023-07-20T15:10:34;23.20;74.10
40808;DHT22;26523;52.504;13.498;2023-07-20T15:13:00;23.10;73.80
40808;DHT22;26523;52.504;13.498;2023-07-20T15:15:26;23.20;72.90
40808;DHT22;26523;52.504;13.498;2023-07-20T15:17:53;23.30;73.10
40808;DHT22;26523;52.504;13.498;2023-07-20T15:20:19;23.20;73.70
40808;DHT22;26523;52.504;13.498;2023-07-20T15:22:45;23.20;73.80
40808;DHT22;26523;52.504;13.498;2023-07-20T15:25:11;23.00;73.90
40808;DHT22;26523;52.504;13.498;2023-07-20T15:27:37;23.00;74.10
40808;DHT22;26523;52.504;13.498;2023-07-20T15:30:04;23.10;73.20
40808;DHT22;26523;52.504;13.498;2023-07-20T15:32:30;23.10;74.10
40808;DHT22;26523;52.504;13.498;2023-07-20T15:34:55;23.10;74.00